Time;durP1;ratioP1;P1;durP2;ratioP2;P2;SDS_P1;SDS_P2;PMS_P1;PMS_P2;Temp;Humidity;BMP_temperature;BMP_pressure;BME280_temperature;BME280_humidity;BME280_pressure;Samples;Min_cycle;Max_cycle;Signal;HPM_P1;HPM_P2
2022/01/21 00:02:53;;;;;;;14.80;9.88;;;;;;;3.61;61.65;97662.66;10372923;28;20071;-58
2022/01/21 00:07:52;;;;;;;28.58;15.98;;;;;;;3.62;61.74;97683.22;10373916;28;20021;-59
2022/01/21 00:12:53;;;;;;;26.77;18.45;;;;;;;3.42;63.92;97708.41;10372953;28;20021;-59
2022/01/21 00:17:52;;;;;;;43.38;34.40;;;;;;;3.38;64.36;97729.66;10372914;28;20578;-58
2022/01/21 00:33:26;;;;;;;15.82;10.43;;;;;;;2.95;69.50;97759.22;10380086;28;20066;-58
2022/01/21 00:38:28;;;;;;;11.93;7.70;;;;;;;2.52;72.97;97764.75;10378356;28;20041;-59
2022/01/21 00:43:32;;;;;;;19.27;9.65;;;;;;;2.32;74.23;97774.38;10379925;28;20065;-59
2022/01/21 00:48:31;;;;;;;11.18;7.18;;;;;;;2.14;75.45;97762.75;10379680;28;20061;-59
2022/01/21 00:53:30;;;;;;;14.88;8.57;;;;;;;2.07;77.47;97765.94;10379088;28;20056;-58
2022/01/21 00:58:29;;;;;;;16.73;9.82;;;;;;;1.97;77.36;97766.41;10379244;28;20087;-59
2022/01/21 01:03:28;;;;;;;15.18;8.40;;;;;;;1.93;78.80;97792.75;10378724;28;20032;-59
2022/01/21 01:08:27;;;;;;;13.63;8.05;;;;;;;1.89;79.28;97783.22;10378637;28;20061;-58
2022/01/21 01:28:59;;;;;;;8.70;5.10;;;;;;;1.57;80.39;97769.34;10378162;28;20028;-59
2022/01/21 01:34:01;;;;;;;7.05;4.53;;;;;;;1.60;80.08;97764.31;10377566;28;20029;-58
2022/01/21 01:54:30;;;;;;;6.25;3.40;;;;;;;1.24;81.06;97778.44;10377870;28;20072;-58
2022/01/21 01:59:29;;;;;;;3.17;1.80;;;;;;;1.24;80.83;97780.97;10376663;28;20059;-58
2022/01/21 02:04:28;;;;;;;5.80;3.70;;;;;;;1.24;80.66;97770.75;10376893;28;20033;-59
2022/01/21 02:09:28;;;;;;;7.10;3.78;;;;;;;1.29;80.10;97774.38;10375194;28;20110;-58
2022/01/21 02:14:31;;;;;;;6.85;3.53;;;;;;;1.21;80.41;97773.22;10376010;28;20504;-58
2022/01/21 02:24:59;;;;;;;4.13;2.60;;;;;;;1.20;80.59;97786.81;10376123;28;20073;-58
2022/01/21 02:30:04;;;;;;;5.82;3.30;;;;;;;1.23;80.42;97803.97;10375565;28;20064;-58
2022/01/21 02:35:03;;;;;;;7.32;3.88;;;;;;;1.27;80.84;97791.34;10375683;28;20057;-58
2022/01/21 02:40:03;;;;;;;6.15;3.63;;;;;;;1.21;80.82;97791.09;10374973;28;20087;-58
2022/01/21 02:45:03;;;;;;;;;;;;;;;1.22;80.84;97791.97;10375173;28;20052;-58
2022/01/21 02:50:04;;;;;;;6.15;3.67;;;;;;;1.20;81.27;97794.50;10375987;28;19966;-61
2022/01/21 02:55:03;;;;;;;9.25;5.00;;;;;;;1.00;81.49;97798.00;10374339;28;20065;-58
2022/01/21 03:00:05;;;;;;;8.93;4.90;;;;;;;0.99;81.93;97798.78;10373024;28;20568;-58
2022/01/21 03:05:11;;;;;;;14.65;10.00;;;;;;;0.72;82.21;97753.53;10374705;28;20056;-58
2022/01/21 03:10:10;;;;;;;14.77;11.57;;;;;;;0.89;82.11;97793.34;10374188;28;20067;-58
2022/01/21 03:15:09;;;;;;;9.20;6.03;;;;;;;1.04;81.98;97807.53;10372552;28;20064;-61
2022/01/21 03:20:09;;;;;;;4.80;3.65;;;;;;;1.01;81.89;97804.84;10374640;28;20061;-58
2022/01/21 03:25:09;;;;;;;6.00;3.38;;;;;;;1.07;81.52;97802.53;10373871;28;20095;-58
2022/01/21 03:30:09;;;;;;;5.50;3.22;;;;;;;1.09;82.12;97809.44;10373923;28;20504;-58
2022/01/21 03:35:09;;;;;;;4.93;2.92;;;;;;;1.03;81.90;97805.75;10374277;28;20056;-58
2022/01/21 03:40:08;;;;;;;;;;;;;;;1.05;82.00;97810.13;10374102;28;20057;-58
2022/01/21 03:45:08;;;;;;;7.43;4.32;;;;;;;0.97;82.02;97816.63;10373519;28;20351;-58
2022/01/21 03:50:30;;;;;;;9.43;5.13;;;;;;;0.93;81.97;97836.91;10373753;28;20044;-58
2022/01/21 03:55:30;;;;;;;7.88;4.30;;;;;;;0.60;83.17;97830.56;10375310;28;20494;-58
2022/01/21 04:00:33;;;;;;;8.73;5.65;;;;;;;0.38;84.61;97841.59;10379631;28;20076;-58
2022/01/21 04:05:34;;;;;;;10.35;5.60;;;;;;;0.19;84.49;97831.44;10381359;28;20053;-58
2022/01/21 04:10:39;;;;;;;8.15;5.28;;;;;;;0.17;85.08;97850.91;10381656;28;20474;-58
2022/01/21 04:15:38;;;;;;;9.65;6.43;;;;;;;0.08;85.94;97868.38;10380654;28;20083;-58
2022/01/21 04:20:37;;;;;;;10.90;7.50;;;;;;;0.01;86.53;97878.34;10380669;28;20396;-58
2022/01/21 04:25:37;;;;;;;11.25;6.68;;;;;;;-0.10;87.10;97873.63;10380724;28;20593;-58
2022/01/21 04:30:37;;;;;;;11.82;7.10;;;;;;;-0.05;86.26;97898.50;10378790;28;20057;-58
2022/01/21 04:35:36;;;;;;;5.60;3.67;;;;;;;-0.08;86.05;97902.59;10380022;28;20060;-58
2022/01/21 04:40:42;;;;;;;7.55;3.78;;;;;;;-0.32;85.59;97888.00;10378633;28;20076;-58
2022/01/21 04:51:13;;;;;;;12.68;7.18;;;;;;;-0.39;86.03;97907.25;10380790;28;20056;-58
2022/01/21 04:56:12;;;;;;;10.15;5.55;;;;;;;-0.39;85.72;97931.88;10379565;28;20056;-58
2022/01/21 05:01:12;;;;;;;14.32;5.95;;;;;;;-0.31;85.62;97952.59;10378454;28;20580;-58
2022/01/21 05:06:11;;;;;;;6.07;3.70;;;;;;;-0.55;86.15;97935.41;10379185;28;20059;-58
2022/01/21 05:11:10;;;;;;;9.43;3.80;;;;;;;-0.58;86.48;97930.16;10379100;28;20033;-58
2022/01/21 05:21:08;;;;;;;10.88;4.97;;;;;;;-0.66;85.64;97962.06;10377689;28;20045;-58
2022/01/21 05:26:07;;;;;;;13.73;6.03;;;;;;;-0.73;84.40;97960.91;10376483;28;20049;-58
2022/01/21 05:31:06;;;;;;;8.80;5.50;;;;;;;-0.80;85.13;97953.78;10374040;28;20400;-58
2022/01/21 05:36:05;;;;;;;15.18;10.02;;;;;;;-0.81;85.31;97978.41;10377509;28;20021;-58
2022/01/21 05:41:04;;;;;;;17.88;11.63;;;;;;;-0.80;85.59;97972.47;10377874;28;20035;-58
2022/01/21 05:51:42;;;;;;;8.73;5.50;;;;;;;-0.77;84.58;97999.78;10275496;28;20066;-58
2022/01/21 05:56:41;;;;;;;10.15;5.75;;;;;;;-0.70;81.83;98001.81;10322818;28;20147;-58
2022/01/21 06:01:40;;;;;;;8.50;4.63;;;;;;;-0.64;81.46;97996.16;10370817;28;20083;-58
2022/01/21 06:06:39;;;;;;;11.25;7.43;;;;;;;-0.38;80.38;98010.97;10374099;28;20400;-58
2022/01/21 06:11:38;;;;;;;19.23;12.77;;;;;;;-0.25;79.14;98011.50;10376736;28;20064;-59
2022/01/21 06:16:40;;;;;;;15.70;9.00;;;;;;;-0.06;79.24;98009.00;10375697;28;20071;-58
2022/01/21 06:21:39;;;;;;;15.15;8.38;;;;;;;0.12;79.04;98028.47;10375309;28;20060;-58
2022/01/21 06:26:38;;;;;;;12.30;8.10;;;;;;;0.17;79.39;98015.13;10376019;28;20051;-58
2022/01/21 06:31:37;;;;;;;18.17;11.02;;;;;;;0.35;79.13;98030.34;10371932;28;20499;-58
2022/01/21 06:36:36;;;;;;;24.75;15.38;;;;;;;0.38;79.34;98033.06;10374490;28;20523;-58
2022/01/21 06:41:34;;;;;;;20.17;12.35;;;;;;;0.33;78.96;98033.66;10373972;28;20029;-58
2022/01/21 06:46:33;;;;;;;27.70;17.10;;;;;;;0.41;78.41;98033.19;10374987;28;20028;-58
2022/01/21 06:51:33;;;;;;;32.97;21.42;;;;;;;0.42;78.89;98024.69;10371549;28;20029;-58
2022/01/21 06:56:32;;;;;;;31.55;18.67;;;;;;;0.56;78.40;98026.97;10368570;28;20584;-58
2022/01/21 07:01:31;;;;;;;26.90;17.33;;;;;;;0.61;77.92;98048.47;10360471;28;20203;-58
2022/01/21 07:06:30;;;;;;;31.63;20.92;;;;;;;0.67;77.76;98046.19;10373648;28;20021;-58
2022/01/21 07:11:29;;;;;;;29.67;21.08;;;;;;;0.70;77.91;98041.19;10374075;28;20036;-58
2022/01/21 07:16:28;;;;;;;42.60;25.80;;;;;;;0.90;77.52;98065.03;10373592;28;20036;-58
2022/01/21 07:21:27;;;;;;;9.38;5.32;;;;;;;0.26;67.83;98091.19;10373975;28;20029;-58
2022/01/21 07:26:26;;;;;;;6.80;4.30;;;;;;;0.04;64.90;98108.09;10374906;28;20037;-58
2022/01/21 07:31:26;;;;;;;12.15;5.28;;;;;;;0.00;66.87;98111.31;10374688;28;20060;-58
2022/01/21 07:36:25;;;;;;;7.95;4.38;;;;;;;0.02;66.94;98117.34;10382511;28;20057;-58
2022/01/21 07:41:24;;;;;;;9.32;5.07;;;;;;;0.24;64.22;98103.03;10381573;28;20061;-58
2022/01/21 07:46:23;;;;;;;18.10;11.00;;;;;;;0.50;66.87;98108.41;10380258;28;20059;-58
2022/01/21 07:51:22;;;;;;;16.08;10.20;;;;;;;0.71;67.00;98099.16;10382233;28;20021;-58
2022/01/21 07:56:21;;;;;;;14.60;7.68;;;;;;;0.81;66.20;98096.19;10381628;28;20060;-58
2022/01/21 08:01:20;;;;;;;6.10;2.70;;;;;;;0.84;61.17;98082.66;10381015;28;20029;-58
2022/01/21 08:06:19;;;;;;;9.50;5.00;;;;;;;1.00;64.31;98053.53;10376602;28;20029;-58
2022/01/21 08:11:18;;;;;;;16.98;9.65;;;;;;;1.24;64.18;98092.84;10380869;28;20059;-58
2022/01/21 08:16:18;;;;;;;9.27;5.85;;;;;;;1.31;63.90;98099.97;10381192;28;20091;-58
2022/01/21 08:21:20;;;;;;;14.45;8.13;;;;;;;1.53;64.45;98098.28;10380263;28;20060;-58
2022/01/21 08:26:22;;;;;;;8.77;4.95;;;;;;;1.59;64.66;98105.31;10380570;28;20504;-58
2022/01/21 08:31:23;;;;;;;7.97;3.80;;;;;;;1.80;64.69;98116.41;10380578;28;20057;-58
2022/01/21 08:36:23;;;;;;;13.88;6.57;;;;;;;1.82;65.01;98106.22;10377167;28;20059;-58
2022/01/21 08:41:22;;;;;;;25.27;13.43;;;;;;;1.66;64.58;98103.06;10378894;28;20056;-58
2022/01/21 08:46:22;;;;;;;16.45;11.10;;;;;;;1.30;60.49;98123.78;10379928;28;20056;-58
2022/01/21 08:51:26;;;;;;;21.90;13.02;;;;;;;1.03;59.27;98137.97;10378888;28;20476;-58
2022/01/21 08:56:26;;;;;;;20.02;11.85;;;;;;;1.11;57.82;98126.41;10377325;28;20072;-58
2022/01/21 09:01:24;;;;;;;;;;;;;;;1.26;56.85;98109.13;10379483;28;20064;-59
2022/01/21 09:06:28;;;;;;;5.55;3.42;;;;;;;1.58;56.42;98099.34;10375182;28;19995;-58
2022/01/21 09:11:27;;;;;;;7.38;4.00;;;;;;;1.96;57.37;98080.34;10377593;28;20063;-58
2022/01/21 09:16:27;;;;;;;7.47;3.10;;;;;;;2.31;56.50;98062.00;10376862;28;20485;-58
2022/01/21 09:21:28;;;;;;;4.65;3.20;;;;;;;2.47;53.76;98074.53;10377829;28;20072;-58
2022/01/21 09:26:27;;;;;;;8.98;5.10;;;;;;;2.82;54.37;98095.41;10377269;28;20389;-58
2022/01/21 09:31:26;;;;;;;18.65;11.10;;;;;;;3.01;53.55;98084.97;10378345;28;20070;-58
2022/01/21 09:36:25;;;;;;;32.15;19.38;;;;;;;3.19;54.37;98069.34;10374341;28;20455;-58
2022/01/21 09:41:24;;;;;;;18.23;9.55;;;;;;;3.23;53.19;98057.47;10375632;28;20555;-58
2022/01/21 09:46:31;;;;;;;17.08;10.68;;;;;;;3.31;52.57;98035.53;10376884;28;20503;-58
2022/01/21 09:51:30;;;;;;;18.42;10.50;;;;;;;3.10;52.88;98004.06;10376854;28;20061;-58
2022/01/21 09:56:30;;;;;;;;;;;;;;;3.34;53.48;98009.97;10374623;28;20529;-58
2022/01/21 10:01:29;;;;;;;13.80;8.07;;;;;;;3.53;53.75;98007.97;10376258;28;19939;-59
2022/01/21 10:06:29;;;;;;;20.00;9.88;;;;;;;3.72;52.83;97988.88;10376414;28;20056;-58
2022/01/21 10:11:28;;;;;;;14.55;9.30;;;;;;;3.93;54.63;98004.03;10373186;28;20554;-58
2022/01/21 10:16:27;;;;;;;15.35;9.48;;;;;;;4.12;53.69;97990.03;10376800;28;20056;-58
2022/01/21 10:21:33;;;;;;;8.95;5.65;;;;;;;4.01;50.41;97969.16;10376108;28;20029;-58
2022/01/21 10:26:32;;;;;;;13.05;7.90;;;;;;;4.10;50.33;97974.56;10375486;28;20112;-58
2022/01/21 10:31:31;;;;;;;12.02;7.05;;;;;;;4.19;49.72;97972.25;10375879;28;20474;-58
2022/01/21 10:36:34;;;;;;;12.30;8.25;;;;;;;4.35;48.63;97986.38;10375160;28;20492;-58
2022/01/21 10:41:34;;;;;;;17.70;11.20;;;;;;;4.43;47.23;97976.31;10360244;28;20067;-58
2022/01/21 10:46:33;;;;;;;26.50;14.82;;;;;;;4.19;49.93;97973.94;10375019;28;20048;-58
2022/01/21 10:51:38;;;;;;;22.25;14.18;;;;;;;3.47;51.94;97994.94;10373502;28;20495;-58
2022/01/21 10:56:37;;;;;;;20.27;13.80;;;;;;;2.82;53.64;97967.28;10374833;28;20555;-58
2022/01/21 11:01:36;;;;;;;25.20;13.68;;;;;;;2.72;53.95;97984.06;10374750;28;20487;-58
2022/01/21 11:06:48;;;;;;;29.83;17.60;;;;;;;2.70;55.19;97982.22;10374444;28;20511;-58
2022/01/21 11:12:06;;;;;;;21.60;12.80;;;;;;;2.68;55.17;97971.09;10374500;28;20492;-58
2022/01/21 11:17:14;;;;;;;64.72;31.08;;;;;;;2.77;56.04;97967.13;10374641;28;20056;-58
2022/01/21 11:22:13;;;;;;;28.45;14.38;;;;;;;2.84;54.30;97964.75;10370375;28;20059;-58
2022/01/21 11:27:16;;;;;;;27.50;16.65;;;;;;;2.89;53.27;97958.97;10372819;28;20559;-58
2022/01/21 11:32:15;;;;;;;20.27;11.57;;;;;;;2.96;51.84;97953.22;10374306;28;20069;-58
2022/01/21 11:37:14;;;;;;;17.45;10.65;;;;;;;3.05;48.47;97959.44;10373913;28;20479;-58
2022/01/21 11:42:15;;;;;;;10.15;5.55;;;;;;;2.96;47.13;97940.41;10373944;28;20494;-58
2022/01/21 11:47:27;;;;;;;18.40;10.55;;;;;;;2.68;47.52;97946.31;10373748;28;20060;-58
2022/01/21 11:52:26;;;;;;;18.15;9.77;;;;;;;2.43;47.25;97957.44;10374395;28;20064;-58
2022/01/21 11:57:31;;;;;;;16.92;9.80;;;;;;;2.58;47.89;97942.59;10373810;28;20063;-58
2022/01/21 12:02:33;;;;;;;14.50;9.55;;;;;;;2.46;46.96;97934.47;10373376;28;20077;-58
2022/01/21 12:07:36;;;;;;;13.75;7.88;;;;;;;2.45;46.57;97950.66;10373531;28;20052;-58
2022/01/21 12:12:45;;;;;;;11.65;7.05;;;;;;;2.40;46.56;97951.34;10373317;28;20068;-58
2022/01/21 12:17:49;;;;;;;12.73;7.40;;;;;;;2.33;47.18;97950.25;10376473;28;20057;-58
2022/01/21 12:23:15;;;;;;;13.82;7.97;;;;;;;2.33;48.08;97938.31;10379987;28;20087;-58
2022/01/21 12:28:17;;;;;;;16.83;10.70;;;;;;;2.31;47.63;97942.50;10378805;28;20137;-59
2022/01/21 12:33:16;;;;;;;13.23;7.38;;;;;;;2.35;46.77;97940.94;10380169;28;20079;-58
2022/01/21 12:43:46;;;;;;;18.20;11.23;;;;;;;2.34;48.75;97904.19;10380279;28;20079;-58
2022/01/21 12:48:47;;;;;;;16.60;10.77;;;;;;;2.41;48.44;97917.22;10378842;28;20037;-58
2022/01/21 12:59:28;;;;;;;16.98;8.27;;;;;;;2.48;47.64;97912.34;10379268;28;20064;-58
2022/01/21 13:04:32;;;;;;;14.55;7.70;;;;;;;2.71;47.18;97922.50;10378970;28;20071;-58
2022/01/21 13:10:05;;;;;;;26.42;13.90;;;;;;;2.89;47.46;97912.84;10379162;28;20068;-58
2022/01/21 13:15:04;;;;;;;14.38;8.80;;;;;;;3.08;47.06;97918.53;10379451;28;20075;-58
2022/01/21 13:20:04;;;;;;;8.23;4.43;;;;;;;3.15;46.32;97897.38;10378847;28;20060;-58
2022/01/21 13:25:17;;;;;;;8.93;4.85;;;;;;;3.33;45.31;97910.78;10378401;28;20084;-58
2022/01/21 13:30:18;;;;;;;23.58;12.13;;;;;;;3.06;43.46;97897.97;10378210;28;20120;-58
2022/01/21 13:35:25;;;;;;;8.10;4.28;;;;;;;3.14;45.00;97911.00;10378633;28;20049;-59
2022/01/21 13:40:24;;;;;;;9.30;5.95;;;;;;;3.26;46.29;97916.53;10377820;28;20061;-58
2022/01/21 13:45:23;;;;;;;;;;;;;;;3.32;45.36;97924.41;10376160;28;20584;-58
2022/01/21 13:50:25;;;;;;;11.88;7.90;;;;;;;3.36;46.98;97928.81;10377680;28;20004;-58
2022/01/21 13:55:32;;;;;;;13.40;8.57;;;;;;;3.32;47.66;97934.66;10377442;28;20491;-58
2022/01/21 14:00:46;;;;;;;14.27;8.52;;;;;;;3.21;48.36;97925.75;10377240;28;20080;-59
2022/01/21 14:05:48;;;;;;;15.60;8.68;;;;;;;3.14;48.75;97934.09;10377240;28;20060;-58
2022/01/21 14:10:47;;;;;;;13.73;8.45;;;;;;;3.15;48.58;97935.84;10374840;28;20068;-58
2022/01/21 14:15:46;;;;;;;20.13;11.10;;;;;;;3.18;47.93;97931.69;10377029;28;20488;-58
2022/01/21 14:20:45;;;;;;;15.00;8.40;;;;;;;3.15;45.98;97917.91;10376236;28;20513;-58
2022/01/21 14:25:52;;;;;;;13.05;7.43;;;;;;;3.04;45.71;97906.44;10374631;28;20499;-58
2022/01/21 14:30:51;;;;;;;14.45;8.43;;;;;;;3.06;45.78;97904.81;10376096;28;20060;-58
2022/01/21 14:35:50;;;;;;;29.20;18.02;;;;;;;3.04;44.68;97917.56;10375813;28;20033;-58
2022/01/21 14:40:52;;;;;;;29.13;17.85;;;;;;;2.92;46.57;97920.59;10373623;28;20044;-58
2022/01/21 14:46:01;;;;;;;33.63;20.27;;;;;;;2.69;49.81;97917.31;10375471;28;20069;-59
2022/01/21 14:51:13;;;;;;;33.83;20.38;;;;;;;2.49;51.89;97903.84;10375280;28;20061;-58
2022/01/21 14:56:24;;;;;;;32.88;20.35;;;;;;;2.40;52.33;97902.69;10375338;28;20492;-58
2022/01/21 15:01:23;;;;;;;31.38;18.73;;;;;;;2.25;53.03;97908.13;10376005;28;20076;-58
2022/01/21 15:06:23;;;;;;;25.95;14.82;;;;;;;2.11;53.21;97916.25;10375112;28;20090;-58
2022/01/21 15:16:27;;;;;;;23.80;14.55;;;;;;;1.78;54.05;97910.78;10374725;28;20076;-58
2022/01/21 15:21:28;;;;;;;23.77;15.90;;;;;;;1.62;54.59;97918.72;10375068;28;20068;-58
2022/01/21 15:26:27;;;;;;;30.15;20.48;;;;;;;1.45;55.65;97913.84;10373049;28;20081;-58
2022/01/21 15:31:26;;;;;;;33.25;19.17;;;;;;;1.28;56.49;97914.91;10374209;28;20082;-58
2022/01/21 15:36:25;;;;;;;29.35;17.75;;;;;;;1.07;56.76;97914.97;10374178;28;20033;-58
2022/01/21 15:41:24;;;;;;;;;;;;;;;0.92;57.52;97927.13;10373086;28;20072;-58
2022/01/21 15:46:23;;;;;;;25.52;15.60;;;;;;;0.93;57.41;97928.88;10374182;28;19908;-58
2022/01/21 15:51:23;;;;;;;52.63;31.60;;;;;;;0.92;57.95;97940.78;10376576;28;20071;-59
2022/01/21 15:56:23;;;;;;;48.22;31.20;;;;;;;0.78;59.76;97942.78;10382097;28;20075;-59
2022/01/21 16:01:22;;;;;;;36.50;23.50;;;;;;;0.47;61.04;97955.97;10381798;28;20348;-59
2022/01/21 16:06:21;;;;;;;24.65;12.98;;;;;;;0.22;56.91;97964.28;10381739;28;20094;-59
2022/01/21 16:11:20;;;;;;;16.52;8.88;;;;;;;0.02;56.49;97959.19;10379662;28;20175;-59
2022/01/21 16:16:19;;;;;;;17.02;12.02;;;;;;;-0.17;56.55;97977.91;10381203;28;20143;-59
2022/01/21 16:21:19;;;;;;;15.55;7.38;;;;;;;-0.61;60.92;98001.38;10381422;28;20467;-59
2022/01/21 16:26:18;;;;;;;14.80;8.48;;;;;;;-1.04;65.49;97981.53;10380807;28;20076;-59
2022/01/21 16:31:17;;;;;;;16.85;9.68;;;;;;;-1.19;64.97;97985.88;10380311;28;20032;-59
2022/01/21 16:36:18;;;;;;;17.65;10.52;;;;;;;-1.37;65.81;97994.38;10380565;28;20526;-59
2022/01/21 16:41:19;;;;;;;15.40;8.80;;;;;;;-1.70;65.38;97946.09;10380251;28;20464;-59
2022/01/21 16:46:19;;;;;;;10.90;6.53;;;;;;;-1.54;64.97;98006.25;10380435;28;20484;-60
2022/01/21 16:51:18;;;;;;;14.25;8.88;;;;;;;-1.52;66.74;98030.09;10380004;28;20056;-59
2022/01/21 16:56:17;;;;;;;15.68;8.15;;;;;;;-1.89;69.14;98027.31;10379629;28;20345;-58
2022/01/21 17:01:16;;;;;;;14.60;9.13;;;;;;;-1.84;69.85;98056.44;10379517;28;20041;-58
2022/01/21 17:06:18;;;;;;;18.02;11.98;;;;;;;-1.81;69.76;98056.59;10376950;28;20040;-59
2022/01/21 17:11:17;;;;;;;28.42;18.45;;;;;;;-1.68;69.19;98036.09;10379275;28;20095;-59
2022/01/21 17:16:16;;;;;;;12.48;8.20;;;;;;;-1.45;68.82;98041.47;10379053;28;20106;-59
2022/01/21 17:21:15;;;;;;;16.50;10.80;;;;;;;-1.20;68.82;98037.59;10378676;28;20503;-59
2022/01/21 17:26:14;;;;;;;15.65;9.60;;;;;;;-1.16;68.71;98031.88;10378248;28;20105;-59
2022/01/21 17:31:13;;;;;;;23.85;16.77;;;;;;;-1.03;68.58;98046.94;10378948;28;20131;-59
2022/01/21 17:36:13;;;;;;;33.72;21.30;;;;;;;-1.13;68.27;98042.19;10378179;28;20072;-59
2022/01/21 17:41:13;;;;;;;24.08;13.80;;;;;;;-1.06;68.45;98049.34;10378274;28;20479;-59
2022/01/21 17:46:14;;;;;;;20.90;11.80;;;;;;;-1.04;69.50;98060.47;10377454;28;20530;-59
2022/01/21 17:51:14;;;;;;;18.67;12.18;;;;;;;-1.10;69.61;98060.16;10377820;28;20061;-59
2022/01/21 17:56:14;;;;;;;20.08;13.60;;;;;;;-1.15;69.60;98066.72;10376140;28;20072;-59
2022/01/21 18:01:13;;;;;;;17.30;8.45;;;;;;;-1.24;69.08;98073.06;10377048;28;20373;-59
2022/01/21 18:06:13;;;;;;;13.43;7.28;;;;;;;-1.64;67.30;98065.97;10377131;28;20075;-59
2022/01/21 18:11:15;;;;;;;24.35;11.32;;;;;;;-1.85;66.41;98069.94;10376689;28;20514;-59
2022/01/21 18:16:14;;;;;;;7.15;4.13;;;;;;;-2.08;65.22;98050.91;10374420;28;20076;-59
2022/01/21 18:21:14;;;;;;;11.55;5.15;;;;;;;-2.27;63.15;98069.41;10376210;28;20090;-59
2022/01/21 18:26:13;;;;;;;15.98;9.68;;;;;;;-2.32;62.67;98076.78;10375919;28;20507;-59
2022/01/21 18:31:12;;;;;;;9.38;5.35;;;;;;;-2.58;62.23;98062.66;10376218;28;20072;-59
2022/01/21 18:36:11;;;;;;;14.77;8.55;;;;;;;-2.50;62.34;98075.78;10375797;28;20094;-59
2022/01/21 18:41:11;;;;;;;;;;;;;;;-2.50;61.29;98071.59;10376315;28;20060;-60
2022/01/21 18:46:12;;;;;;;16.17;8.88;;;;;;;-2.40;60.58;98057.72;10375637;28;20263;-59
2022/01/21 18:51:12;;;;;;;10.20;6.10;;;;;;;-2.51;59.23;98057.13;10374056;28;20388;-59
2022/01/21 18:56:13;;;;;;;23.10;9.38;;;;;;;-2.54;57.58;98056.97;10374933;28;20057;-59
2022/01/21 19:01:16;;;;;;;9.75;5.60;;;;;;;-2.58;56.72;98067.72;10375030;28;20064;-59
2022/01/21 19:06:15;;;;;;;17.95;9.88;;;;;;;-2.51;57.65;98062.19;10373196;28;20504;-59
2022/01/21 19:11:15;;;;;;;15.40;8.55;;;;;;;-2.44;57.45;98060.88;10374541;28;20407;-59
2022/01/21 19:16:14;;;;;;;11.98;7.70;;;;;;;-2.44;57.23;98072.72;10374828;28;20470;-59
2022/01/21 19:21:15;;;;;;;14.73;7.93;;;;;;;-2.51;56.35;98069.81;10374697;28;20483;-59
2022/01/21 19:26:28;;;;;;;14.15;7.32;;;;;;;-2.55;55.08;98078.06;10374297;28;20080;-59
2022/01/21 19:31:27;;;;;;;17.80;8.65;;;;;;;-2.42;54.77;98084.72;10373042;28;20513;-59
2022/01/21 19:36:26;;;;;;;18.38;8.95;;;;;;;-2.33;54.54;98091.97;10373971;28;20455;-60
2022/01/21 19:41:26;;;;;;;13.05;7.82;;;;;;;-2.42;54.97;98083.84;10374298;28;20506;-59
2022/01/21 19:46:27;;;;;;;14.98;7.30;;;;;;;-2.36;53.90;98096.84;10373885;28;20067;-59
2022/01/21 19:51:26;;;;;;;16.27;8.77;;;;;;;-2.43;54.31;98107.47;10373906;28;20079;-59
2022/01/21 19:56:35;;;;;;;9.43;5.22;;;;;;;-2.46;54.90;98117.50;10373838;28;20067;-59
2022/01/21 20:01:40;;;;;;;7.20;3.67;;;;;;;-2.79;56.35;98118.22;10373930;28;20567;-59
2022/01/21 20:12:09;;;;;;;4.28;3.38;;;;;;;-3.03;58.14;98132.06;10373666;28;20068;-59
2022/01/21 20:17:09;;;;;;;10.00;4.60;;;;;;;-3.13;58.87;98135.72;10373441;28;20056;-59
2022/01/21 20:22:09;;;;;;;6.47;3.92;;;;;;;-3.17;58.69;98133.78;10373456;28;20060;-59
2022/01/21 20:27:09;;;;;;;9.45;4.97;;;;;;;-3.15;58.75;98142.38;10372213;28;20567;-59
2022/01/21 20:32:23;;;;;;;15.65;6.80;;;;;;;-3.15;59.08;98142.38;10373153;28;20060;-59
2022/01/21 20:37:24;;;;;;;12.32;6.13;;;;;;;-3.09;59.35;98147.78;10374197;28;20061;-59
2022/01/21 20:42:23;;;;;;;15.80;6.28;;;;;;;-3.01;58.86;98154.19;10380843;28;20072;-59
2022/01/21 20:47:22;;;;;;;11.98;5.93;;;;;;;-3.06;58.18;98162.31;10380125;28;20057;-59
2022/01/21 20:52:24;;;;;;;15.82;7.80;;;;;;;-3.09;57.13;98149.47;10379855;28;20486;-59
2022/01/21 20:57:23;;;;;;;27.52;11.30;;;;;;;-3.17;57.12;98154.09;10379733;28;20067;-59
2022/01/21 21:02:22;;;;;;;21.83;9.65;;;;;;;-3.16;57.82;98155.84;10380294;28;20069;-59
2022/01/21 21:07:21;;;;;;;16.67;7.47;;;;;;;-3.28;57.91;98155.13;10379629;28;20060;-59
2022/01/21 21:12:20;;;;;;;17.73;8.90;;;;;;;-3.50;57.71;98141.16;10377654;28;20037;-59
2022/01/21 21:27:43;;;;;;;50.95;21.25;;;;;;;-3.68;58.39;98148.53;10379247;28;20073;-59
2022/01/21 23:02:18;;;;;;;22.92;11.75;;;;;;;-4.08;53.33;98094.53;10374648;28;20064;-59
2022/01/21 23:07:18;;;;;;;24.90;11.07;;;;;;;-4.19;53.80;98091.31;10375192;28;20048;-59
2022/01/21 23:12:17;;;;;;;18.75;9.90;;;;;;;-4.34;53.89;98072.66;10375288;28;20052;-59
2022/01/21 23:17:16;;;;;;;18.40;8.00;;;;;;;-4.31;55.29;98076.22;10374337;28;20029;-59
2022/01/21 23:22:15;;;;;;;;;;;;;;;-4.28;55.39;98086.56;10375076;28;20063;-59
2022/01/21 23:27:30;;;;;;;12.30;5.90;;;;;;;-4.36;54.21;98080.13;10374805;28;19924;-59
2022/01/21 23:32:35;;;;;;;13.57;6.85;;;;;;;-4.38;54.87;98084.22;10374763;28;20060;-59
2022/01/21 23:37:47;;;;;;;27.73;12.13;;;;;;;-4.44;55.62;98073.75;10374147;28;20476;-59
2022/01/21 23:42:49;;;;;;;26.23;13.70;;;;;;;-4.37;55.91;98069.91;10374352;28;20065;-59
2022/01/21 23:47:51;;;;;;;23.08;12.68;;;;;;;-4.38;55.83;98076.63;10374119;28;20055;-59
2022/01/21 23:52:52;;;;;;;19.30;10.52;;;;;;;-4.41;56.08;98072.25;10374094;28;20347;-59
2022/01/21 23:57:52;;;;;;;17.33;10.70;;;;;;;-4.51;56.67;98053.84;10373778;28;20057;-59
